LEVS

Details ICAO LEVS
Name Cuatro Vientos
Region Spain
Timezone Europe/Madrid (UTC+1.0)
Plans Departing 36
Arriving 14
Stats Elevation 2,267 ft / 691 m (AMSL)
Location 40.371330° -3.784644°
Runways 2
Magnetic Variation 0.747° W
Sunrise 2017-12-17 07:33:43 UTC / 2017-12-17 08:33:43 Local
Sunset 2017-12-17 16:51:33 UTC / 2017-12-17 17:51:33 Local
Advertisement - Login to hide

Runways

ID Width Length Bearing (true) Bearing (mag) Surface Threshold Offset Overrun Length
10 98 ft / 30 m 4,897 ft / 1,493 m 93.79° 94.54° Asphalt 0 ft / 0 m 197 ft / 60 m
10L 148 ft / 45 m 3,656 ft / 1,114 m 94.12° 94.87° Dirt 0 ft / 0 m 0 ft / 0 m
28 98 ft / 30 m 4,897 ft / 1,493 m 273.80° 274.55° Asphalt 0 ft / 0 m 197 ft / 60 m
28R 148 ft / 45 m 3,656 ft / 1,114 m 274.13° 274.88° Dirt 0 ft / 0 m 0 ft / 0 m

Map

Weather


0- 5 10 15 20 25 30 35+ Temperature / ° C

Clouds and Precipitation
Forecast for 2017-12-18 00:00 UTC. Updated 21 minutes ago

Ground ~20,000 ft ~40,000 ft Winds

METAR

LEVS 171900Z 00000KT CAVOK 08/M01 Q1031

TAF

Not found

Frequencies

Ground 121.80 MHz GND
Tower 118.70 MHz TWR
Tower 122.50 MHz TWR
Warning: Do not use this data for real-world aviation or navigation. No guarantee of current accuracy is given.